Time;durP1;ratioP1;P1;durP2;ratioP2;P2;SDS_P1;SDS_P2;PMS_P1;PMS_P2;Temp;Humidity;BMP_temperature;BMP_pressure;BME280_temperature;BME280_humidity;BME280_pressure;Samples;Min_cycle;Max_cycle;Signal;HPM_P1;HPM_P2
2022/12/31 00:01:14;;;;;;;9.60;4.18;;;12.60;99.90;;;;;;5025967;28;20038;-66
2022/12/31 00:03:40;;;;;;;10.07;4.72;;;12.60;99.90;;;;;;5031160;28;20569;-67
2022/12/31 00:06:33;;;;;;;9.43;5.20;;;12.50;99.90;;;;;;5008409;28;20041;-66
2022/12/31 00:09:02;;;;;;;8.57;4.43;;;12.50;99.90;;;;;;5014736;28;20756;-66
2022/12/31 00:11:29;;;;;;;10.70;4.68;;;12.50;99.90;;;;;;5030616;28;20037;-67
2022/12/31 00:13:55;;;;;;;9.27;4.30;;;12.50;99.90;;;;;;5025410;28;20069;-67
2022/12/31 00:16:23;;;;;;;9.82;4.50;;;12.50;99.90;;;;;;5018170;28;20165;-67
2022/12/31 00:18:51;;;;;;;11.55;5.50;;;12.50;99.90;;;;;;5029684;28;20042;-67
2022/12/31 00:21:18;;;;;;;9.05;4.78;;;12.50;99.90;;;;;;5030718;28;20063;-66
2022/12/31 00:23:44;;;;;;;10.85;5.00;;;12.50;99.90;;;;;;5024174;28;20068;-66
2022/12/31 00:26:18;;;;;;;9.65;5.13;;;12.50;99.90;;;;;;5021365;28;20069;-67
2022/12/31 00:28:44;;;;;;;9.75;4.70;;;12.60;99.90;;;;;;5030920;28;20092;-67
2022/12/31 00:31:15;;;;;;;9.43;4.40;;;12.50;99.90;;;;;;5021249;28;20041;-66
2022/12/31 00:33:41;;;;;;;7.90;4.10;;;12.50;99.90;;;;;;5025331;28;20591;-66
2022/12/31 00:36:13;;;;;;;9.98;4.60;;;12.50;99.90;;;;;;5030350;28;20418;-66
2022/12/31 00:38:40;;;;;;;7.38;5.07;;;12.40;99.90;;;;;;5021625;28;20045;-67
2022/12/31 00:41:06;;;;;;;8.95;5.03;;;12.50;99.90;;;;;;5018684;28;20033;-67
2022/12/31 00:43:32;;;;;;;9.18;6.18;;;12.40;99.90;;;;;;5030541;28;20045;-67
2022/12/31 00:45:59;;;;;;;12.10;6.53;;;12.40;99.90;;;;;;5030848;28;20045;-66
2022/12/31 00:48:24;;;;;;;13.50;7.75;;;12.50;99.90;;;;;;5003769;28;20066;-66
2022/12/31 00:50:51;;;;;;;13.27;7.90;;;12.50;99.90;;;;;;5023225;28;20546;-67
2022/12/31 00:53:16;;;;;;;12.23;7.20;;;12.50;99.90;;;;;;5018580;28;20625;-66
2022/12/31 00:55:42;;;;;;;14.77;7.28;;;12.50;99.90;;;;;;5012966;28;20038;-67
2022/12/31 00:58:08;;;;;;;12.40;7.03;;;12.50;99.90;;;;;;5009543;28;20160;-68
2022/12/31 01:00:35;;;;;;;12.57;7.10;;;12.40;99.90;;;;;;5029856;28;20045;-67
2022/12/31 01:03:00;;;;;;;13.15;7.55;;;12.40;99.90;;;;;;5030300;28;20037;-67
2022/12/31 01:05:26;;;;;;;15.30;7.10;;;12.40;99.90;;;;;;5021030;28;20470;-66
2022/12/31 01:07:52;;;;;;;11.32;6.53;;;12.40;99.90;;;;;;5032212;28;20041;-68
2022/12/31 01:11:17;;;;;;;11.82;7.00;;;12.40;99.90;;;;;;5037270;28;20069;-68
2022/12/31 01:13:03;;;;;;;14.30;6.72;;;12.40;99.90;;;;;;5027501;28;20056;-67
2022/12/31 01:15:35;;;;;;;11.02;6.88;;;12.40;99.90;;;;;;5036472;28;20037;-68
2022/12/31 01:18:03;;;;;;;14.75;7.07;;;12.40;99.90;;;;;;5017008;28;20048;-67
2022/12/31 01:20:34;;;;;;;14.07;7.28;;;12.30;99.90;;;;;;5022708;28;20144;-67
2022/12/31 01:22:59;;;;;;;12.32;5.68;;;12.30;99.90;;;;;;5035566;28;20403;-66
2022/12/31 01:25:25;;;;;;;13.00;6.10;;;12.30;99.90;;;;;;5036512;28;20033;-66
2022/12/31 01:27:50;;;;;;;9.48;5.50;;;12.30;99.90;;;;;;5037107;28;20435;-67
2022/12/31 01:30:16;;;;;;;11.20;5.70;;;12.30;99.90;;;;;;5010045;28;20087;-67
2022/12/31 01:32:42;;;;;;;10.98;5.80;;;12.30;99.90;;;;;;5034250;28;20049;-66
2022/12/31 01:35:07;;;;;;;6.50;5.00;;;12.30;99.90;;;;;;5037049;28;20116;-67
2022/12/31 01:37:33;;;;;;;9.75;4.57;;;12.30;99.90;;;;;;5029604;28;20124;-65
2022/12/31 01:39:59;;;;;;;8.20;4.60;;;12.30;99.90;;;;;;5031167;28;20072;-66
2022/12/31 01:42:24;;;;;;;7.80;4.00;;;12.30;99.90;;;;;;5036202;28;20033;-67
2022/12/31 01:44:54;;;;;;;8.30;4.20;;;12.30;99.90;;;;;;5036883;28;20125;-66
2022/12/31 01:47:37;;;;;;;6.18;3.78;;;12.30;99.90;;;;;;5028329;28;20038;-67
2022/12/31 01:50:11;;;;;;;5.90;3.20;;;12.30;99.90;;;;;;5034182;28;20033;-68
2022/12/31 01:52:41;;;;;;;5.45;3.15;;;12.30;99.90;;;;;;5036318;28;20037;-67
2022/12/31 01:55:21;;;;;;;4.75;3.22;;;12.30;99.90;;;;;;5025711;28;20041;-67
2022/12/31 01:57:50;;;;;;;5.43;2.90;;;12.30;99.90;;;;;;5028069;28;20047;-67
2022/12/31 02:00:16;;;;;;;5.82;2.90;;;12.20;99.90;;;;;;5036733;28;20033;-67
2022/12/31 02:02:42;;;;;;;5.80;2.47;;;12.20;99.90;;;;;;5035890;28;20087;-65
2022/12/31 02:05:23;;;;;;;4.53;2.38;;;12.30;99.90;;;;;;5027868;28;20061;-66
2022/12/31 02:07:49;;;;;;;3.15;2.00;;;12.20;99.90;;;;;;5036406;28;20109;-67
2022/12/31 02:10:15;;;;;;;5.32;2.10;;;12.30;99.90;;;;;;5018801;28;20049;-66
2022/12/31 02:12:41;;;;;;;4.65;1.98;;;12.30;99.90;;;;;;5025410;28;20045;-66
2022/12/31 02:15:07;;;;;;;3.53;1.95;;;12.20;99.90;;;;;;5014357;28;20080;-65
2022/12/31 02:18:04;;;;;;;4.53;1.75;;;12.20;99.90;;;;;;5033304;28;20092;-65
2022/12/31 02:20:52;;;;;;;2.25;1.70;;;12.20;99.90;;;;;;5012828;28;20049;-67
2022/12/31 02:23:51;;;;;;;2.55;1.35;;;12.20;99.90;;;;;;5018255;28;20488;-66
2022/12/31 02:27:01;;;;;;;1.50;1.33;;;12.10;99.90;;;;;;5026765;28;20045;-66
2022/12/31 02:29:40;;;;;;;4.05;1.65;;;12.10;99.90;;;;;;5010950;28;20053;-67
2022/12/31 02:32:15;;;;;;;1.77;1.40;;;12.10;99.90;;;;;;4996213;28;20042;-66
2022/12/31 02:34:57;;;;;;;2.25;1.67;;;12.00;99.90;;;;;;5030527;28;20160;-66
2022/12/31 02:37:26;;;;;;;2.03;1.50;;;12.00;99.90;;;;;;5033581;28;20128;-67
2022/12/31 02:39:52;;;;;;;3.33;1.80;;;12.00;99.90;;;;;;5022323;28;20491;-67
2022/12/31 02:42:18;;;;;;;3.17;1.80;;;12.00;99.90;;;;;;5023106;28;20069;-67
2022/12/31 02:44:43;;;;;;;4.05;2.05;;;12.00;99.90;;;;;;5032691;28;20119;-66
2022/12/31 02:47:15;;;;;;;3.80;2.00;;;12.00;99.90;;;;;;5027020;28;20069;-67
2022/12/31 02:49:54;;;;;;;3.47;2.00;;;11.90;99.90;;;;;;5028252;28;20041;-67
2022/12/31 02:52:34;;;;;;;3.95;2.00;;;11.90;99.90;;;;;;5020113;28;20088;-67
2022/12/31 02:55:29;;;;;;;3.65;2.05;;;11.90;99.90;;;;;;5032807;28;20041;-67
2022/12/31 02:57:57;;;;;;;3.35;2.33;;;11.90;99.90;;;;;;5013694;28;20046;-67
2022/12/31 03:03:09;;;;;;;4.80;2.60;;;11.90;99.90;;;;;;5011473;28;20048;-66
2022/12/31 03:05:41;;;;;;;5.22;2.88;;;11.90;99.90;;;;;;5024733;28;20041;-66
2022/12/31 03:08:07;;;;;;;4.95;2.80;;;11.90;99.90;;;;;;5032249;28;20033;-66
2022/12/31 03:10:33;;;;;;;3.28;2.53;;;11.90;99.90;;;;;;5032475;28;20033;-66
2022/12/31 03:12:59;;;;;;;5.55;2.97;;;11.80;99.90;;;;;;5028965;28;20034;-65
2022/12/31 03:15:28;;;;;;;5.90;3.30;;;11.80;99.90;;;;;;5018149;28;20045;-68
2022/12/31 03:18:04;;;;;;;6.70;3.30;;;11.80;99.90;;;;;;5031168;28;20045;-67
2022/12/31 03:23:20;;;;;;;3.97;2.72;;;11.80;99.90;;;;;;5019802;28;20079;-67
2022/12/31 03:25:46;;;;;;;4.10;2.95;;;11.70;99.90;;;;;;5032225;28;20052;-67
2022/12/31 03:28:17;;;;;;;6.15;3.10;;;11.70;99.90;;;;;;5014429;28;20076;-68
2022/12/31 03:30:46;;;;;;;5.38;3.20;;;11.80;99.90;;;;;;5013861;28;20041;-67
2022/12/31 03:33:12;;;;;;;4.85;2.80;;;11.70;99.90;;;;;;5016078;28;20057;-67
2022/12/31 03:35:40;;;;;;;5.78;2.95;;;11.80;99.90;;;;;;5031498;28;20045;-67
2022/12/31 03:38:05;;;;;;;5.93;2.70;;;11.70;99.90;;;;;;5015247;28;20029;-68
2022/12/31 03:40:33;;;;;;;6.28;3.40;;;11.70;99.90;;;;;;5030468;28;20124;-67
2022/12/31 03:42:59;;;;;;;5.65;3.30;;;11.70;99.90;;;;;;5032081;28;20049;-67
2022/12/31 03:45:25;;;;;;;6.38;3.47;;;11.70;99.90;;;;;;5020775;28;20030;-66
2022/12/31 03:47:51;;;;;;;5.85;3.40;;;11.80;99.90;;;;;;5028380;28;20038;-66
2022/12/31 03:50:18;;;;;;;5.30;3.17;;;11.80;99.90;;;;;;5031724;28;20036;-66
2022/12/31 03:52:44;;;;;;;5.10;3.15;;;11.80;99.90;;;;;;5031776;28;20403;-66
2022/12/31 03:55:10;;;;;;;5.55;3.20;;;11.80;99.90;;;;;;5020072;28;20534;-67
2022/12/31 03:57:37;;;;;;;5.57;3.75;;;11.80;99.90;;;;;;5016873;28;20196;-66
2022/12/31 04:00:09;;;;;;;5.35;3.15;;;11.90;99.90;;;;;;5032459;28;20046;-66
2022/12/31 04:02:35;;;;;;;7.88;3.65;;;11.90;99.90;;;;;;5021619;28;20496;-66
2022/12/31 04:05:00;;;;;;;4.93;3.42;;;11.90;99.90;;;;;;5025368;28;20033;-66
2022/12/31 04:07:26;;;;;;;5.90;3.47;;;11.80;99.90;;;;;;5031963;28;20049;-66
2022/12/31 04:09:52;;;;;;;6.65;3.25;;;11.90;99.90;;;;;;5024292;28;20033;-66
2022/12/31 04:12:18;;;;;;;4.88;3.10;;;11.90;99.90;;;;;;5019364;28;20034;-66
2022/12/31 04:14:44;;;;;;;6.85;3.40;;;11.90;99.90;;;;;;5029354;28;20044;-67
2022/12/31 04:17:09;;;;;;;4.55;2.97;;;11.80;99.90;;;;;;5031765;28;20049;-66
2022/12/31 04:19:36;;;;;;;6.40;2.70;;;11.80;99.90;;;;;;5021117;28;20100;-66
2022/12/31 04:22:02;;;;;;;6.38;2.70;;;11.80;99.90;;;;;;5016405;28;20117;-67
2022/12/31 04:24:27;;;;;;;4.05;2.42;;;11.80;99.90;;;;;;5031523;28;20112;-67
2022/12/31 04:26:53;;;;;;;4.72;2.58;;;11.80;99.90;;;;;;5024609;28;21939;-66
2022/12/31 04:29:18;;;;;;;5.90;2.40;;;11.70;99.90;;;;;;5024597;28;20491;-68
2022/12/31 04:31:44;;;;;;;5.00;2.45;;;11.80;99.90;;;;;;5031067;28;20038;-67
2022/12/31 04:34:10;;;;;;;5.05;2.20;;;11.80;99.90;;;;;;5032244;28;20037;-67
2022/12/31 04:36:35;;;;;;;6.63;2.30;;;11.80;99.90;;;;;;5010946;28;20049;-66
2022/12/31 04:39:01;;;;;;;4.53;2.03;;;11.70;99.90;;;;;;5022808;28;20041;-67
2022/12/31 04:41:27;;;;;;;4.18;2.33;;;11.70;99.90;;;;;;5031125;28;20069;-66
2022/12/31 04:43:54;;;;;;;5.60;2.30;;;11.70;99.90;;;;;;5027778;28;20113;-66
2022/12/31 04:46:23;;;;;;;4.35;1.90;;;11.70;99.90;;;;;;5022570;28;20037;-67
2022/12/31 04:48:50;;;;;;;5.80;2.30;;;11.60;99.90;;;;;;5031630;28;20042;-66
2022/12/31 04:51:16;;;;;;;4.57;2.20;;;11.60;99.90;;;;;;5031676;28;20508;-65
2022/12/31 04:53:41;;;;;;;3.97;2.25;;;11.60;99.90;;;;;;5017803;28;20034;-67
2022/12/31 04:56:08;;;;;;;5.90;2.28;;;11.60;99.90;;;;;;5026459;28;20450;-67
2022/12/31 04:58:34;;;;;;;4.18;2.60;;;11.50;99.90;;;;;;5030704;28;20080;-66
2022/12/31 05:01:00;;;;;;;5.10;2.95;;;11.60;99.90;;;;;;5027073;28;20038;-67
2022/12/31 05:03:26;;;;;;;6.43;2.85;;;11.60;99.90;;;;;;5030015;28;20040;-67
2022/12/31 05:05:52;;;;;;;5.40;3.10;;;11.60;99.90;;;;;;5031005;28;20080;-65
2022/12/31 05:08:18;;;;;;;6.95;2.88;;;11.60;99.90;;;;;;5031551;28;20041;-67
2022/12/31 05:10:48;;;;;;;7.07;3.40;;;11.60;99.90;;;;;;5028924;28;20045;-66
2022/12/31 05:13:14;;;;;;;8.15;3.92;;;11.60;99.90;;;;;;5024664;28;20052;-67
2022/12/31 05:15:40;;;;;;;7.95;4.45;;;11.70;99.90;;;;;;5019142;28;20042;-66
2022/12/31 05:18:07;;;;;;;8.27;4.38;;;11.70;99.90;;;;;;5020222;28;20029;-66
2022/12/31 05:20:33;;;;;;;8.80;4.88;;;11.60;99.90;;;;;;5029182;28;20029;-66
2022/12/31 05:22:59;;;;;;;8.07;5.07;;;11.60;99.90;;;;;;5025987;28;20029;-66
2022/12/31 05:25:25;;;;;;;10.23;6.38;;;11.70;99.90;;;;;;5029260;28;20056;-67
2022/12/31 05:27:51;;;;;;;9.60;5.82;;;11.70;99.90;;;;;;5035607;28;20045;-66
2022/12/31 05:30:17;;;;;;;10.93;6.97;;;11.70;99.90;;;;;;5015967;28;20154;-66
2022/12/31 05:32:43;;;;;;;11.85;7.88;;;11.70;99.90;;;;;;5026912;28;20041;-67
2022/12/31 05:35:09;;;;;;;10.70;7.30;;;11.70;99.90;;;;;;5024384;28;20038;-66
2022/12/31 05:37:35;;;;;;;11.35;6.47;;;11.70;99.90;;;;;;5027086;28;20052;-66
2022/12/31 05:40:01;;;;;;;10.73;6.78;;;11.70;99.90;;;;;;5030730;28;20091;-66
2022/12/31 05:42:27;;;;;;;10.52;6.25;;;11.70;99.90;;;;;;5020840;28;20057;-66
2022/12/31 05:44:52;;;;;;;13.52;6.47;;;11.70;99.90;;;;;;5024120;28;20162;-66
2022/12/31 05:47:18;;;;;;;9.68;5.63;;;11.70;99.90;;;;;;5030698;28;20045;-66
2022/12/31 05:49:45;;;;;;;11.30;6.32;;;11.60;99.90;;;;;;5030215;28;20128;-67
2022/12/31 05:52:10;;;;;;;6.93;4.47;;;11.70;99.90;;;;;;5018432;28;20129;-67
2022/12/31 05:54:36;;;;;;;9.93;4.63;;;11.70;99.90;;;;;;5030209;28;20123;-66
2022/12/31 05:57:03;;;;;;;8.77;5.40;;;11.70;99.90;;;;;;5033477;28;20582;-66
2022/12/31 05:59:29;;;;;;;8.68;4.88;;;11.70;99.90;;;;;;5025526;28;20049;-66
2022/12/31 06:01:55;;;;;;;6.22;4.40;;;11.70;99.90;;;;;;5029361;28;20037;-66
2022/12/31 06:04:20;;;;;;;7.70;4.18;;;11.70;99.90;;;;;;5033659;28;20083;-66
2022/12/31 06:06:46;;;;;;;5.82;4.03;;;11.70;99.90;;;;;;5029690;28;20072;-66
2022/12/31 06:09:13;;;;;;;7.82;4.53;;;11.70;99.90;;;;;;5027274;28;20069;-66
2022/12/31 06:11:39;;;;;;;5.75;4.22;;;11.70;99.90;;;;;;5025920;28;20042;-66
2022/12/31 06:14:04;;;;;;;7.10;4.05;;;11.70;99.90;;;;;;5033341;28;20103;-66
2022/12/31 06:16:30;;;;;;;5.57;3.70;;;11.60;99.90;;;;;;5042117;28;20048;-66
2022/12/31 06:18:55;;;;;;;6.53;4.38;;;11.60;99.90;;;;;;5033455;28;20124;-66
2022/12/31 06:21:21;;;;;;;6.70;4.15;;;11.70;99.90;;;;;;5017414;28;20083;-66
2022/12/31 06:23:47;;;;;;;5.93;3.97;;;11.60;99.90;;;;;;5026165;28;20052;-66
2022/12/31 06:26:14;;;;;;;7.00;4.30;;;11.60;99.90;;;;;;5026405;28;20037;-66
2022/12/31 06:28:40;;;;;;;6.68;4.03;;;11.60;99.90;;;;;;5032837;28;20044;-66
2022/12/31 06:31:08;;;;;;;7.35;4.00;;;11.60;99.90;;;;;;5032786;28;20037;-66
2022/12/31 06:33:34;;;;;;;8.50;4.40;;;11.60;99.90;;;;;;5020645;28;20038;-66
2022/12/31 06:36:01;;;;;;;7.00;4.20;;;11.50;99.90;;;;;;5022077;28;20041;-66
2022/12/31 06:38:29;;;;;;;6.10;3.95;;;11.50;99.90;;;;;;5040728;28;20037;-66
2022/12/31 06:40:55;;;;;;;6.55;4.22;;;11.60;99.90;;;;;;5026048;28;20087;-66
2022/12/31 06:43:21;;;;;;;5.85;3.85;;;11.60;99.90;;;;;;5032739;28;20032;-66
2022/12/31 06:45:47;;;;;;;5.57;3.88;;;11.50;99.90;;;;;;5036922;28;20484;-66
2022/12/31 06:48:13;;;;;;;8.88;4.20;;;11.50;99.90;;;;;;5033069;28;20037;-67
2022/12/31 06:50:39;;;;;;;7.38;3.97;;;11.50;99.90;;;;;;5027681;28;20538;-68
2022/12/31 06:53:05;;;;;;;7.32;4.05;;;11.50;99.90;;;;;;5031623;28;20045;-67
2022/12/31 06:55:31;;;;;;;6.68;4.13;;;11.50;99.90;;;;;;5032820;28;20068;-67
2022/12/31 06:57:57;;;;;;;7.03;4.00;;;11.50;99.90;;;;;;5015363;28;20075;-67
2022/12/31 07:00:23;;;;;;;8.15;3.83;;;11.50;99.90;;;;;;5031881;28;20048;-67
2022/12/31 07:02:59;;;;;;;5.93;3.80;;;11.50;99.90;;;;;;5031486;28;20128;-67
2022/12/31 07:05:38;;;;;;;5.82;3.67;;;11.50;99.90;;;;;;5022134;28;20046;-67
2022/12/31 07:08:07;;;;;;;5.38;3.75;;;11.50;99.90;;;;;;5016980;28;20041;-67
2022/12/31 07:10:51;;;;;;;6.65;3.72;;;11.50;99.90;;;;;;5032194;28;20061;-67
2022/12/31 07:13:48;;;;;;;5.03;3.25;;;11.50;99.90;;;;;;5031561;28;20085;-67
2022/12/31 07:16:28;;;;;;;7.47;3.30;;;11.60;99.90;;;;;;5035445;28;20033;-67
2022/12/31 07:19:34;;;;;;;5.70;3.30;;;11.60;99.90;;;;;;5032437;28;20550;-67
2022/12/31 07:22:01;;;;;;;6.55;3.70;;;11.60;99.90;;;;;;5007804;28;20088;-67
2022/12/31 07:24:27;;;;;;;7.70;4.20;;;11.60;99.90;;;;;;5016341;28;20141;-67
2022/12/31 07:27:02;;;;;;;7.15;4.22;;;11.60;99.90;;;;;;5031034;28;20143;-67
2022/12/31 07:29:34;;;;;;;5.93;3.70;;;11.60;99.90;;;;;;5018458;28;20065;-67
2022/12/31 07:32:22;;;;;;;8.80;4.10;;;11.70;99.90;;;;;;5021524;28;20559;-66
2022/12/31 07:34:54;;;;;;;6.93;4.03;;;11.70;99.90;;;;;;5030022;28;20052;-67
2022/12/31 07:37:35;;;;;;;8.73;4.03;;;11.70;99.90;;;;;;5030095;28;20507;-67
2022/12/31 07:40:27;;;;;;;7.00;4.00;;;11.70;99.90;;;;;;5016653;28;20447;-67
2022/12/31 07:43:10;;;;;;;8.13;4.38;;;11.70;99.90;;;;;;5034574;28;20642;-68
2022/12/31 07:45:53;;;;;;;6.03;3.63;;;11.70;99.90;;;;;;5031365;28;20088;-67
2022/12/31 07:48:25;;;;;;;9.00;4.53;;;11.80;99.90;;;;;;5030063;28;20063;-67
2022/12/31 07:50:53;;;;;;;;;;;11.70;99.90;;;;;;5034504;28;20499;-67
2022/12/31 07:53:19;;;;;;;10.30;5.35;;;11.80;99.90;;;;;;5040449;28;20614;-67
2022/12/31 07:55:45;;;;;;;9.85;5.35;;;11.80;99.90;;;;;;5026874;28;20499;-66
2022/12/31 07:58:23;;;;;;;9.20;4.93;;;11.80;99.90;;;;;;5000037;28;20052;-66
2022/12/31 08:00:51;;;;;;;6.78;3.85;;;11.90;99.90;;;;;;5028603;28;20053;-68
2022/12/31 08:03:41;;;;;;;6.43;4.13;;;11.90;99.90;;;;;;4992271;28;20515;-68
2022/12/31 08:06:07;;;;;;;7.28;3.63;;;11.90;99.90;;;;;;5025457;28;20454;-67
2022/12/31 08:08:41;;;;;;;6.20;3.90;;;12.00;99.90;;;;;;5025937;28;20435;-67
2022/12/31 08:11:15;;;;;;;5.43;3.30;;;12.00;99.90;;;;;;5023497;28;20045;-67
2022/12/31 08:13:42;;;;;;;6.20;3.53;;;12.10;99.90;;;;;;5022349;28;20041;-67
2022/12/31 08:16:12;;;;;;;5.88;3.20;;;12.10;99.90;;;;;;5005683;28;20037;-68
2022/12/31 08:18:37;;;;;;;4.60;3.03;;;12.20;99.90;;;;;;5026176;28;20567;-67
2022/12/31 08:21:18;;;;;;;5.32;3.33;;;12.30;99.90;;;;;;5022902;28;20136;-66
2022/12/31 08:24:01;;;;;;;5.82;3.92;;;12.20;99.90;;;;;;5024828;28;20072;-67
2022/12/31 08:26:47;;;;;;;5.95;3.75;;;12.30;99.90;;;;;;5013827;28;20045;-67
2022/12/31 08:29:29;;;;;;;6.57;3.80;;;12.40;99.90;;;;;;5015696;28;20092;-67
2022/12/31 08:32:02;;;;;;;6.50;3.83;;;12.50;99.90;;;;;;5026640;28;20048;-66
2022/12/31 08:35:07;;;;;;;6.47;4.10;;;12.60;99.90;;;;;;5027778;28;20045;-66
2022/12/31 08:37:48;;;;;;;6.85;3.90;;;12.60;99.90;;;;;;5013105;28;20136;-66
2022/12/31 08:40:29;;;;;;;7.07;4.22;;;12.70;99.90;;;;;;5016643;28;20095;-66
2022/12/31 08:43:17;;;;;;;6.35;4.10;;;12.60;99.90;;;;;;5027189;28;20037;-68
2022/12/31 08:45:49;;;;;;;6.60;4.20;;;12.70;99.90;;;;;;5022617;28;20044;-67
2022/12/31 08:48:30;;;;;;;7.43;4.25;;;12.70;99.90;;;;;;5025814;28;20046;-68
2022/12/31 08:50:56;;;;;;;7.05;4.32;;;12.80;99.90;;;;;;5030183;28;20100;-67
2022/12/31 08:53:22;;;;;;;6.07;4.55;;;12.80;99.90;;;;;;5033458;28;20511;-68
2022/12/31 08:55:56;;;;;;;7.40;4.28;;;12.90;99.90;;;;;;5009956;28;20037;-66
2022/12/31 08:58:40;;;;;;;5.72;3.92;;;12.90;99.90;;;;;;5035389;28;20029;-66
2022/12/31 09:01:07;;;;;;;5.63;3.67;;;12.90;99.90;;;;;;5018081;28;20060;-66
2022/12/31 09:04:16;;;;;;;4.55;3.08;;;13.00;99.90;;;;;;5019358;28;20091;-67
2022/12/31 09:06:50;;;;;;;4.28;2.90;;;13.10;99.90;;;;;;5025483;28;20050;-66
2022/12/31 09:09:37;;;;;;;5.70;2.60;;;13.20;99.90;;;;;;5028990;28;20051;-66
2022/12/31 09:12:30;;;;;;;8.43;2.42;;;13.20;99.90;;;;;;5016887;28;20041;-67
2022/12/31 09:15:32;;;;;;;3.25;2.15;;;13.30;99.90;;;;;;5025517;28;20672;-65
2022/12/31 09:17:58;;;;;;;3.92;2.72;;;13.40;99.90;;;;;;5025679;28;20033;-66
2022/12/31 09:20:27;;;;;;;2.78;2.15;;;13.40;99.90;;;;;;5018790;28;20038;-65
2022/12/31 09:22:54;;;;;;;4.85;2.95;;;13.40;99.90;;;;;;5019397;28;20495;-66
2022/12/31 09:25:21;;;;;;;3.47;2.00;;;13.50;99.90;;;;;;5010152;28;20049;-67
2022/12/31 09:28:05;;;;;;;1.60;1.50;;;13.50;99.90;;;;;;5014755;28;20641;-67
2022/12/31 09:30:57;;;;;;;2.05;1.35;;;13.60;99.90;;;;;;5027897;28;20715;-67
2022/12/31 09:33:38;;;;;;;1.88;1.20;;;13.60;99.90;;;;;;5030553;28;20481;-67
2022/12/31 09:36:13;;;;;;;1.27;1.17;;;13.60;99.90;;;;;;5022369;28;20116;-66
2022/12/31 09:38:51;;;;;;;2.50;1.25;;;13.70;99.90;;;;;;5029555;28;20507;-67
2022/12/31 09:41:22;;;;;;;2.05;1.17;;;13.70;99.90;;;;;;5030095;28;20033;-67
2022/12/31 09:44:07;;;;;;;1.75;1.00;;;13.60;99.90;;;;;;5029862;28;20042;-66
2022/12/31 09:47:07;;;;;;;1.90;0.93;;;13.70;99.90;;;;;;5035878;28;20076;-66
2022/12/31 09:49:44;;;;;;;2.25;1.17;;;13.70;99.90;;;;;;5041612;28;20099;-66
2022/12/31 09:52:31;;;;;;;1.77;1.23;;;13.70;99.90;;;;;;5054191;28;20041;-67
2022/12/31 09:55:24;;;;;;;3.25;1.20;;;13.70;99.90;;;;;;5035745;28;20041;-65
2022/12/31 09:58:02;;;;;;;1.25;1.08;;;13.70;99.90;;;;;;5033037;28;20050;-65
2022/12/31 10:00:43;;;;;;;1.30;1.05;;;13.80;99.90;;;;;;5034233;28;20046;-65
2022/12/31 10:03:23;;;;;;;2.88;1.30;;;13.90;99.90;;;;;;5037909;28;20502;-66
2022/12/31 10:05:58;;;;;;;2.38;1.10;;;13.90;99.90;;;;;;5033523;28;20128;-67
2022/12/31 10:08:55;;;;;;;1.55;1.00;;;13.90;99.90;;;;;;5034485;28;20076;-67
2022/12/31 10:11:52;;;;;;;1.80;1.00;;;13.90;99.90;;;;;;5011790;28;20049;-67
2022/12/31 10:14:55;;;;;;;1.13;0.93;;;14.10;99.90;;;;;;5028666;28;20041;-66
2022/12/31 10:17:48;;;;;;;1.90;1.20;;;14.10;99.90;;;;;;5030777;28;20060;-67
2022/12/31 10:20:42;;;;;;;1.38;1.10;;;14.20;99.90;;;;;;5027702;28;20391;-66
2022/12/31 10:23:17;;;;;;;2.92;1.30;;;14.20;99.90;;;;;;5027307;28;20037;-66
2022/12/31 10:26:01;;;;;;;2.75;1.20;;;14.10;99.90;;;;;;5029574;28;20046;-66
2022/12/31 10:28:32;;;;;;;2.88;1.13;;;14.10;99.90;;;;;;5026838;28;20120;-66
2022/12/31 10:31:08;;;;;;;2.97;1.40;;;14.10;99.90;;;;;;5029321;28;20052;-66
2022/12/31 10:33:49;;;;;;;1.58;1.42;;;14.10;99.90;;;;;;5027190;28;20128;-66
2022/12/31 10:36:19;;;;;;;2.05;1.30;;;14.00;99.90;;;;;;5011391;28;20088;-66
2022/12/31 10:39:00;;;;;;;10.70;7.13;;;14.00;99.90;;;;;;5023205;28;20458;-65
2022/12/31 10:42:06;;;;;;;1.50;1.38;;;14.10;99.90;;;;;;5026901;28;20049;-65
2022/12/31 10:44:50;;;;;;;2.03;1.33;;;14.10;99.90;;;;;;5020043;28;20076;-66
2022/12/31 10:47:41;;;;;;;2.63;1.50;;;14.20;99.90;;;;;;5017011;28;20053;-66
2022/12/31 10:50:25;;;;;;;3.17;1.40;;;14.30;99.90;;;;;;5028618;28;20385;-65
2022/12/31 10:53:09;;;;;;;1.90;1.40;;;14.40;99.90;;;;;;5024299;28;20033;-66
2022/12/31 10:56:20;;;;;;;3.38;1.52;;;14.40;99.90;;;;;;5041697;28;20048;-66
2022/12/31 10:59:07;;;;;;;3.15;1.80;;;14.30;99.90;;;;;;5033823;28;20116;-65
2022/12/31 11:01:52;;;;;;;3.60;1.77;;;14.30;99.90;;;;;;5022416;28;20125;-65
2022/12/31 11:04:55;;;;;;;2.58;1.50;;;14.20;99.90;;;;;;5030706;28;20052;-66
2022/12/31 11:07:32;;;;;;;2.83;1.90;;;14.30;99.90;;;;;;5034402;28;20396;-66
2022/12/31 11:10:12;;;;;;;2.40;1.70;;;14.30;99.90;;;;;;5038061;28;20041;-65
2022/12/31 11:12:38;;;;;;;3.83;1.60;;;14.30;99.90;;;;;;5034429;28;20353;-65
2022/12/31 11:15:19;;;;;;;3.53;1.67;;;14.30;99.90;;;;;;5053061;28;20041;-65
2022/12/31 11:17:47;;;;;;;3.03;1.60;;;14.20;99.90;;;;;;5021982;28;20184;-66
2022/12/31 11:20:36;;;;;;;1.95;1.50;;;14.30;99.90;;;;;;5028285;28;20441;-66
2022/12/31 11:23:09;;;;;;;5.20;2.15;;;14.20;99.90;;;;;;5052853;28;20174;-65
2022/12/31 11:25:41;;;;;;;4.47;2.50;;;14.20;99.90;;;;;;5017038;28;20527;-65
2022/12/31 11:28:13;;;;;;;2.80;2.00;;;14.20;99.90;;;;;;5032078;28;20100;-66
2022/12/31 11:30:56;;;;;;;4.70;2.00;;;14.10;99.90;;;;;;5032272;28;20107;-65
2022/12/31 11:34:02;;;;;;;5.88;2.20;;;14.10;99.90;;;;;;5021531;28;20029;-66
2022/12/31 11:36:39;;;;;;;4.43;2.70;;;14.20;99.90;;;;;;5027539;28;20400;-65
2022/12/31 11:39:37;;;;;;;5.10;3.33;;;14.20;99.90;;;;;;5031990;28;20179;-65
2022/12/31 11:42:22;;;;;;;8.48;3.58;;;14.30;99.90;;;;;;5022164;28;20037;-65
2022/12/31 11:45:11;;;;;;;7.97;3.50;;;14.20;99.90;;;;;;5020142;28;20046;-66
2022/12/31 11:47:43;;;;;;;7.20;3.30;;;14.20;99.90;;;;;;5031894;28;20064;-66
2022/12/31 11:50:26;;;;;;;6.45;3.67;;;14.20;99.90;;;;;;5022439;28;20030;-65
2022/12/31 11:53:24;;;;;;;6.05;3.42;;;14.10;99.90;;;;;;5029819;28;20041;-65
2022/12/31 11:56:06;;;;;;;6.60;3.55;;;14.20;99.90;;;;;;5031088;28;20058;-65
2022/12/31 11:58:32;;;;;;;6.25;3.30;;;14.30;99.90;;;;;;5011804;28;20068;-66
2022/12/31 12:01:10;;;;;;;5.47;3.65;;;14.40;99.90;;;;;;5030268;28;20037;-65
2022/12/31 12:03:41;;;;;;;6.25;3.63;;;14.40;99.90;;;;;;5031277;28;20488;-66
2022/12/31 12:06:27;;;;;;;6.50;3.58;;;14.40;99.90;;;;;;5028072;28;20047;-65
2022/12/31 12:09:00;;;;;;;5.72;3.60;;;14.50;99.90;;;;;;5029953;28;20087;-65
2022/12/31 12:11:30;;;;;;;9.88;3.70;;;14.50;99.90;;;;;;5030947;28;20029;-66
2022/12/31 12:13:56;;;;;;;6.95;3.80;;;14.40;99.90;;;;;;5028274;28;20021;-66
2022/12/31 12:16:24;;;;;;;6.07;3.78;;;14.40;99.90;;;;;;5025539;28;20450;-66
2022/12/31 12:19:03;;;;;;;7.97;3.63;;;14.40;99.90;;;;;;5030713;28;20037;-66
2022/12/31 12:21:30;;;;;;;6.28;3.60;;;14.40;99.90;;;;;;5030949;28;20052;-66
2022/12/31 12:24:17;;;;;;;4.25;3.38;;;14.50;99.90;;;;;;5018699;28;20458;-65
2022/12/31 12:26:44;;;;;;;5.50;3.17;;;14.60;99.90;;;;;;5029378;28;20414;-65
2022/12/31 12:29:33;;;;;;;6.47;3.20;;;14.70;99.90;;;;;;5037758;28;20034;-67
2022/12/31 12:32:12;;;;;;;4.30;2.67;;;14.70;99.90;;;;;;5023618;28;20393;-66
2022/12/31 12:34:39;;;;;;;3.83;2.47;;;14.70;99.90;;;;;;5030275;28;20099;-67
2022/12/31 12:37:27;;;;;;;5.07;2.78;;;14.70;99.90;;;;;;5030568;28;20288;-65
2022/12/31 12:39:59;;;;;;;6.95;3.25;;;14.60;99.90;;;;;;5028822;28;20329;-65
2022/12/31 12:42:25;;;;;;;6.35;4.10;;;14.60;99.90;;;;;;5015146;28;20029;-65
2022/12/31 12:45:13;;;;;;;10.20;5.50;;;14.50;99.90;;;;;;5027540;28;20037;-66
2022/12/31 12:47:41;;;;;;;9.40;5.15;;;14.40;99.90;;;;;;5024291;28;20052;-66
2022/12/31 12:50:17;;;;;;;8.32;4.63;;;14.50;99.90;;;;;;5028843;28;20044;-66
2022/12/31 12:53:04;;;;;;;6.63;4.30;;;14.40;99.90;;;;;;5028225;28;20415;-67
2022/12/31 12:55:57;;;;;;;5.22;3.00;;;14.30;99.90;;;;;;5030287;28;20045;-67
2022/12/31 12:58:37;;;;;;;4.30;3.15;;;14.30;99.90;;;;;;5021923;28;20112;-67
2022/12/31 13:01:31;;;;;;;5.85;3.13;;;14.40;99.90;;;;;;5018384;28;20401;-66
2022/12/31 13:04:13;;;;;;;6.30;3.13;;;14.30;99.90;;;;;;5008275;28;20037;-67
2022/12/31 13:07:10;;;;;;;8.93;3.80;;;14.20;99.90;;;;;;5026183;28;20247;-66
2022/12/31 13:10:06;;;;;;;4.97;3.08;;;14.20;99.90;;;;;;5029780;28;20041;-66
2022/12/31 13:12:53;;;;;;;7.65;3.25;;;14.20;99.90;;;;;;5020836;28;20046;-66
2022/12/31 13:15:30;;;;;;;5.45;3.22;;;14.10;99.90;;;;;;5015997;28;20040;-66
2022/12/31 13:18:17;;;;;;;6.72;3.13;;;14.10;99.90;;;;;;5009469;28;20050;-67
2022/12/31 13:20:52;;;;;;;4.28;2.63;;;14.00;99.90;;;;;;5014611;28;20060;-67
2022/12/31 13:23:20;;;;;;;3.35;2.35;;;14.00;99.90;;;;;;5021260;28;20045;-67
2022/12/31 13:26:17;;;;;;;4.30;3.50;;;14.00;99.90;;;;;;5029459;28;20037;-67